createdAt,value
2018-05-14T00:01:29.740Z,14.77
2018-05-14T00:03:58.064Z,14.80
2018-05-14T00:06:27.256Z,14.86
2018-05-14T00:08:55.762Z,14.74
2018-05-14T00:11:24.081Z,14.78
2018-05-14T00:13:52.395Z,14.69
2018-05-14T00:16:21.468Z,14.67
2018-05-14T00:18:49.766Z,14.75
2018-05-14T00:21:18.817Z,14.71
2018-05-14T00:23:47.149Z,14.68
2018-05-14T00:26:15.394Z,14.81
2018-05-14T00:28:43.693Z,14.78
2018-05-14T00:31:12.769Z,14.71
2018-05-14T00:33:41.080Z,14.74
2018-05-14T00:36:10.129Z,14.68
2018-05-14T00:38:38.437Z,14.68
2018-05-14T00:41:07.545Z,14.69
2018-05-14T00:43:36.615Z,14.86
2018-05-14T00:46:04.932Z,14.73
2018-05-14T00:48:36.506Z,14.64
2018-05-14T00:51:04.828Z,14.64
2018-05-14T00:53:33.498Z,14.71
2018-05-14T00:56:02.615Z,14.70
2018-05-14T00:58:30.924Z,14.67
2018-05-14T01:00:59.238Z,14.55
2018-05-14T01:03:27.546Z,14.56
2018-05-14T01:05:55.888Z,14.62
2018-05-14T01:08:24.233Z,14.40
2018-05-14T01:10:53.298Z,14.69
2018-05-14T01:13:21.586Z,14.51
2018-05-14T01:15:50.658Z,14.54
2018-05-14T01:18:18.971Z,14.52
2018-05-14T01:20:48.054Z,14.53
2018-05-14T01:23:17.104Z,14.53
2018-05-14T01:25:45.399Z,14.52
2018-05-14T01:28:13.740Z,14.52
2018-05-14T01:30:41.989Z,14.47
2018-05-14T01:33:11.049Z,14.48
2018-05-14T01:35:40.123Z,14.54
2018-05-14T01:38:08.442Z,14.62
2018-05-14T01:40:37.089Z,14.43
2018-05-14T01:43:05.390Z,14.43
2018-05-14T01:45:33.702Z,14.41
2018-05-14T01:48:02.755Z,14.39
2018-05-14T01:50:31.055Z,14.30
2018-05-14T01:53:00.131Z,14.61
2018-05-14T01:55:28.470Z,14.41
2018-05-14T01:57:56.777Z,14.32
2018-05-14T02:00:25.065Z,14.27
2018-05-14T02:02:53.349Z,14.52
2018-05-14T02:05:21.683Z,14.32
2018-05-14T02:07:50.005Z,14.41
2018-05-14T02:10:18.343Z,14.38
2018-05-14T02:12:46.653Z,14.32
2018-05-14T02:15:14.958Z,14.39
2018-05-14T02:17:44.023Z,14.42
2018-05-14T02:20:12.353Z,14.44
2018-05-14T02:22:40.884Z,14.42
2018-05-14T02:25:09.187Z,14.42
2018-05-14T02:27:38.305Z,14.28
2018-05-14T02:30:06.628Z,14.38
2018-05-14T02:32:34.960Z,14.35
2018-05-14T02:35:03.294Z,14.35
2018-05-14T02:37:31.581Z,14.37
2018-05-14T02:39:59.903Z,14.36
2018-05-14T02:42:28.450Z,14.36
2018-05-14T02:44:56.832Z,14.23
2018-05-14T02:47:25.182Z,14.28
2018-05-14T02:49:53.471Z,14.30
2018-05-14T02:52:21.819Z,14.34
2018-05-14T02:54:50.316Z,14.04
2018-05-14T02:57:18.599Z,14.15
2018-05-14T02:59:46.986Z,14.12
2018-05-14T03:02:15.317Z,14.14
2018-05-14T03:04:44.037Z,14.03
2018-05-14T03:07:12.359Z,14.11
2018-05-14T03:09:40.679Z,13.96
2018-05-14T03:12:08.960Z,13.86
2018-05-14T03:14:37.252Z,13.93
2018-05-14T03:17:05.556Z,14.00
2018-05-14T03:19:35.318Z,14.03
2018-05-14T03:22:03.612Z,14.05
2018-05-14T03:24:31.944Z,14.07
2018-05-14T03:27:01.006Z,14.02
2018-05-14T03:29:29.309Z,14.01
2018-05-14T03:31:58.420Z,14.02
2018-05-14T03:34:26.740Z,13.96
2018-05-14T03:36:55.074Z,13.84
2018-05-14T03:39:23.393Z,13.80
2018-05-14T03:41:51.788Z,13.96
2018-05-14T03:44:20.134Z,13.85
2018-05-14T03:46:48.555Z,13.91
2018-05-14T03:49:16.882Z,13.88
2018-05-14T03:51:45.201Z,13.96
2018-05-14T03:54:13.511Z,13.95
2018-05-14T03:56:42.627Z,13.89
2018-05-14T03:59:28.777Z,13.91
2018-05-14T04:05:18.552Z,13.97
2018-05-14T04:07:48.091Z,14.03
2018-05-14T04:10:16.396Z,13.97
2018-05-14T04:12:44.716Z,14.07
2018-05-14T04:15:13.061Z,13.97
2018-05-14T04:17:42.114Z,13.95
2018-05-14T04:20:10.428Z,13.93
2018-05-14T04:22:39.706Z,13.98
2018-05-14T04:25:08.016Z,13.98
2018-05-14T04:27:37.122Z,13.96
2018-05-14T04:30:05.443Z,13.93
2018-05-14T04:32:33.760Z,13.92
2018-05-14T04:35:02.855Z,14.09
2018-05-14T04:37:32.115Z,14.07
2018-05-14T04:40:00.389Z,14.08
2018-05-14T04:42:28.670Z,14.04
2018-05-14T04:44:56.997Z,14.11
2018-05-14T04:47:25.317Z,14.08
2018-05-14T04:49:53.578Z,14.08
2018-05-14T04:52:21.899Z,14.11
2018-05-14T04:54:50.672Z,13.80
2018-05-14T04:57:19.161Z,13.95
2018-05-14T04:59:47.460Z,14.07
2018-05-14T05:02:16.562Z,14.09
2018-05-14T05:04:44.886Z,14.38
2018-05-14T05:07:13.216Z,14.69
2018-05-14T05:09:42.254Z,14.81
2018-05-14T05:12:10.597Z,15.35
2018-05-14T05:14:38.885Z,15.89
2018-05-14T05:17:07.252Z,15.31
2018-05-14T05:19:35.519Z,15.76
2018-05-14T05:22:04.560Z,15.31
2018-05-14T05:24:32.885Z,15.95
2018-05-14T05:27:01.942Z,15.66
2018-05-14T05:29:30.270Z,15.39
2018-05-14T05:31:59.313Z,16.09
2018-05-14T05:34:27.690Z,18.02
2018-05-14T05:36:56.416Z,18.95
2018-05-14T05:39:24.749Z,18.88
2018-05-14T05:41:53.040Z,16.57
2018-05-14T05:44:21.387Z,15.87
2018-05-14T05:46:49.680Z,16.20
2018-05-14T05:49:18.609Z,16.01
2018-05-14T05:51:48.069Z,19.44
2018-05-14T05:54:18.381Z,21.36
2018-05-14T05:56:47.425Z,22.65
2018-05-14T05:59:17.376Z,22.99
2018-05-14T06:01:46.521Z,21.44
2018-05-14T06:04:15.765Z,24.06
2018-05-14T06:06:44.081Z,22.81
2018-05-14T06:09:12.374Z,20.78
2018-05-14T06:11:40.755Z,20.23
2018-05-14T06:14:09.071Z,19.45
2018-05-14T06:16:38.144Z,20.56
2018-05-14T06:19:06.438Z,25.07
2018-05-14T06:21:39.770Z,24.54
2018-05-14T06:24:08.138Z,23.33
2018-05-14T06:26:36.483Z,24.54
2018-05-14T06:29:04.781Z,25.18
2018-05-14T06:31:33.886Z,25.90
2018-05-14T06:34:02.193Z,24.82
2018-05-14T06:36:30.489Z,26.25
2018-05-14T06:38:58.977Z,26.64
2018-05-14T06:41:27.618Z,23.81
2018-05-14T06:43:55.941Z,25.17
2018-05-14T06:46:24.237Z,23.39
2018-05-14T06:48:52.536Z,25.96
2018-05-14T06:51:21.631Z,22.75
2018-05-14T06:53:50.013Z,26.79
2018-05-14T06:56:18.313Z,26.68
2018-05-14T06:58:46.600Z,26.64
2018-05-14T07:01:14.916Z,24.00
2018-05-14T07:03:43.242Z,24.53
2018-05-14T07:06:11.559Z,27.44
2018-05-14T07:08:39.881Z,26.75
2018-05-14T07:11:08.907Z,28.06
2018-05-14T07:13:37.228Z,27.10
2018-05-14T07:16:05.597Z,26.56
2018-05-14T07:18:33.893Z,28.23
2018-05-14T07:21:03.257Z,27.64
2018-05-14T07:23:31.742Z,26.94
2018-05-14T07:26:00.052Z,28.14
2018-05-14T07:28:29.108Z,27.31
2018-05-14T07:30:58.069Z,26.61
2018-05-14T07:33:26.355Z,26.78
2018-05-14T07:35:54.667Z,25.87
2018-05-14T07:38:23.008Z,26.45
2018-05-14T07:40:51.341Z,27.33
2018-05-14T07:43:19.648Z,25.70
2018-05-14T07:45:48.060Z,24.60
2018-05-14T07:48:16.421Z,25.21
2018-05-14T07:50:44.827Z,27.97
2018-05-14T07:53:13.127Z,26.41
2018-05-14T07:55:41.456Z,24.86
2018-05-14T07:58:09.896Z,27.48
2018-05-14T08:00:38.226Z,27.34
2018-05-14T08:03:07.118Z,27.27
2018-05-14T08:05:35.517Z,27.24
2018-05-14T08:08:03.870Z,25.56
2018-05-14T08:10:32.183Z,26.03
2018-05-14T08:13:00.515Z,26.15
2018-05-14T08:15:28.834Z,24.92
2018-05-14T08:17:57.164Z,24.43
2018-05-14T08:20:26.285Z,24.81
2018-05-14T08:22:54.626Z,24.27
2018-05-14T08:25:23.662Z,23.58
2018-05-14T08:27:51.964Z,22.33
2018-05-14T08:30:20.253Z,21.66
2018-05-14T08:32:48.553Z,22.59
2018-05-14T08:35:17.615Z,23.54
2018-05-14T08:37:45.960Z,23.75
2018-05-14T08:40:14.267Z,23.88
2018-05-14T08:42:42.592Z,23.96
2018-05-14T08:45:11.960Z,23.20
2018-05-14T08:47:40.297Z,22.86
2018-05-14T08:50:08.677Z,23.32
2018-05-14T08:52:36.946Z,23.08
2018-05-14T08:55:05.256Z,22.53
2018-05-14T08:57:33.556Z,22.32
2018-05-14T09:00:01.860Z,24.19
2018-05-14T09:02:30.147Z,25.61
2018-05-14T09:04:58.455Z,26.27
2018-05-14T09:07:26.730Z,26.68
2018-05-14T09:09:55.068Z,27.69
2018-05-14T09:12:24.116Z,26.90
2018-05-14T09:14:52.428Z,26.47
2018-05-14T09:17:20.720Z,27.13
2018-05-14T09:19:49.050Z,26.52
2018-05-14T09:22:18.098Z,26.14
2018-05-14T09:24:46.417Z,26.47
2018-05-14T09:27:15.145Z,26.28
2018-05-14T09:29:44.234Z,27.31
2018-05-14T09:32:12.538Z,26.86
2018-05-14T09:34:40.979Z,27.21
2018-05-14T09:37:09.990Z,26.72
2018-05-14T09:39:38.264Z,26.24
2018-05-14T09:42:07.354Z,26.57
2018-05-14T09:44:35.705Z,26.46
2018-05-14T09:47:04.759Z,26.87
2018-05-14T09:49:33.090Z,25.90
2018-05-14T09:52:01.417Z,27.18
2018-05-14T09:54:29.725Z,26.19
2018-05-14T09:56:58.066Z,26.52
2018-05-14T09:59:27.113Z,26.76
2018-05-14T10:01:55.416Z,26.45
2018-05-14T10:04:23.719Z,27.22
2018-05-14T10:06:52.043Z,27.14
2018-05-14T10:09:20.369Z,26.81
2018-05-14T10:11:49.418Z,25.96
2018-05-14T10:14:17.823Z,26.38
2018-05-14T10:16:46.112Z,27.10
2018-05-14T10:19:15.207Z,26.96
2018-05-14T10:21:44.231Z,27.29
2018-05-14T10:24:12.531Z,26.12
2018-05-14T10:26:40.821Z,26.43
2018-05-14T10:29:09.092Z,26.37
2018-05-14T10:31:37.414Z,26.68
2018-05-14T10:34:06.474Z,26.61
2018-05-14T10:36:35.505Z,26.57
2018-05-14T10:39:05.317Z,26.89
2018-05-14T10:41:34.376Z,26.53
2018-05-14T10:44:02.664Z,27.50
2018-05-14T10:46:31.006Z,27.19
2018-05-14T10:48:59.306Z,26.96
2018-05-14T10:51:27.611Z,27.18
2018-05-14T10:53:55.895Z,27.45
2018-05-14T10:56:24.946Z,27.29
2018-05-14T10:58:53.282Z,26.60
2018-05-14T11:01:21.956Z,26.80
2018-05-14T11:03:50.999Z,27.09
2018-05-14T11:06:19.293Z,26.57
2018-05-14T11:08:47.603Z,26.62
2018-05-14T11:11:18.851Z,26.73
2018-05-14T11:13:47.911Z,26.25
2018-05-14T11:16:16.244Z,26.29
2018-05-14T11:18:45.308Z,26.45
2018-05-14T11:21:13.597Z,26.22
2018-05-14T11:23:42.640Z,26.03
2018-05-14T11:26:10.958Z,26.11
2018-05-14T11:28:39.282Z,25.93
2018-05-14T11:31:07.582Z,25.83
2018-05-14T11:33:35.865Z,25.99
2018-05-14T11:36:04.228Z,26.22
2018-05-14T11:38:32.510Z,25.97
2018-05-14T11:41:00.797Z,26.07
2018-05-14T11:43:29.098Z,26.11
2018-05-14T11:45:57.388Z,26.37
2018-05-14T11:48:26.759Z,26.12
2018-05-14T11:50:55.156Z,26.38
2018-05-14T11:53:23.406Z,26.45
2018-05-14T11:55:51.669Z,26.61
2018-05-14T11:58:19.958Z,26.39
2018-05-14T12:00:48.252Z,26.27
2018-05-14T12:03:16.580Z,26.79
2018-05-14T12:05:44.836Z,26.48
2018-05-14T12:08:13.929Z,26.77
2018-05-14T12:10:43.061Z,26.59
2018-05-14T12:13:11.416Z,26.44
2018-05-14T12:15:40.464Z,26.78
2018-05-14T12:18:08.862Z,26.70
2018-05-14T12:20:37.863Z,26.49
2018-05-14T12:23:06.185Z,26.15
2018-05-14T12:25:34.518Z,26.47
2018-05-14T12:28:02.836Z,26.43
2018-05-14T12:30:31.166Z,26.48
2018-05-14T12:32:59.496Z,26.27
2018-05-14T12:35:28.039Z,26.27
2018-05-14T12:37:56.375Z,26.58
2018-05-14T12:40:24.660Z,26.38
2018-05-14T12:42:53.004Z,26.19
2018-05-14T12:45:21.316Z,26.54
2018-05-14T12:47:49.642Z,26.44
2018-05-14T12:50:18.710Z,26.46
2018-05-14T12:52:47.023Z,26.37
2018-05-14T12:55:16.122Z,26.74
2018-05-14T12:57:45.059Z,26.57
2018-05-14T13:00:13.385Z,26.52
2018-05-14T13:02:41.776Z,26.60
2018-05-14T13:05:12.891Z,26.60
2018-05-14T13:07:41.308Z,26.55
2018-05-14T13:10:09.628Z,26.48
2018-05-14T13:12:37.922Z,26.55
2018-05-14T13:15:06.251Z,26.72
2018-05-14T13:17:34.576Z,26.96
2018-05-14T13:20:02.956Z,26.98
2018-05-14T13:22:31.410Z,26.86
2018-05-14T13:25:00.737Z,26.88
2018-05-14T13:27:29.064Z,26.93
2018-05-14T13:29:57.398Z,27.02
2018-05-14T13:32:25.707Z,26.83
2018-05-14T13:34:53.957Z,26.70
2018-05-14T13:37:22.309Z,26.69
2018-05-14T13:39:50.831Z,26.75
2018-05-14T13:42:19.211Z,27.10
2018-05-14T13:44:48.348Z,27.29
2018-05-14T13:47:16.799Z,27.77
2018-05-14T13:49:45.836Z,27.67
2018-05-14T13:52:14.194Z,27.42
2018-05-14T13:54:42.533Z,27.52
2018-05-14T13:57:14.421Z,27.88
2018-05-14T13:59:43.453Z,27.55
2018-05-14T14:02:11.760Z,27.31
2018-05-14T14:04:40.845Z,26.94
2018-05-14T14:07:09.138Z,26.71
2018-05-14T14:09:38.556Z,26.35
2018-05-14T14:12:06.908Z,26.71
2018-05-14T14:14:35.189Z,26.93
2018-05-14T14:17:03.534Z,26.80
2018-05-14T14:19:31.777Z,26.91
2018-05-14T14:22:00.067Z,26.89
2018-05-14T14:24:28.527Z,27.20
2018-05-14T14:26:56.753Z,27.31
2018-05-14T14:29:25.053Z,27.03
2018-05-14T14:31:53.330Z,26.80
2018-05-14T14:34:21.654Z,26.56
2018-05-14T14:36:49.929Z,26.80
2018-05-14T14:39:18.220Z,26.92
2018-05-14T14:41:46.552Z,26.92
2018-05-14T14:44:15.649Z,27.18
2018-05-14T14:46:44.724Z,26.99
2018-05-14T14:49:13.037Z,26.91
2018-05-14T14:51:42.069Z,27.19
2018-05-14T14:54:10.372Z,27.10
2018-05-14T14:56:38.745Z,27.21
2018-05-14T14:59:07.239Z,27.12
2018-05-14T15:01:35.536Z,27.07
2018-05-14T15:04:04.593Z,27.20
2018-05-14T15:06:32.909Z,27.11
2018-05-14T15:09:01.992Z,27.19
2018-05-14T15:11:31.112Z,26.96
2018-05-14T15:13:59.395Z,26.90
2018-05-14T15:16:27.705Z,26.67
2018-05-14T15:18:55.980Z,26.59
2018-05-14T15:21:24.280Z,26.93
2018-05-14T15:23:52.605Z,26.84
2018-05-14T15:26:20.908Z,27.06
2018-05-14T15:28:49.145Z,26.98
2018-05-14T15:31:17.507Z,26.35
2018-05-14T15:33:46.270Z,26.51
2018-05-14T15:36:14.624Z,26.43
2018-05-14T15:38:43.711Z,26.50
2018-05-14T15:41:12.099Z,26.43
2018-05-14T15:43:40.408Z,26.59
2018-05-14T15:46:08.728Z,26.71
2018-05-14T15:48:37.030Z,26.72
2018-05-14T15:51:05.360Z,26.55
2018-05-14T15:53:33.679Z,26.56
2018-05-14T15:56:02.004Z,26.64
2018-05-14T15:58:30.327Z,26.56
2018-05-14T16:00:58.659Z,26.59
2018-05-14T16:03:26.989Z,26.45
2018-05-14T16:05:55.311Z,26.38
2018-05-14T16:08:23.650Z,26.35
2018-05-14T16:10:51.969Z,26.53
2018-05-14T16:13:20.262Z,26.57
2018-05-14T16:15:48.593Z,26.48
2018-05-14T16:18:16.932Z,26.41
2018-05-14T16:20:46.206Z,26.45
2018-05-14T16:23:14.476Z,26.34
2018-05-14T16:25:42.764Z,26.28
2018-05-14T16:28:11.119Z,26.30
2018-05-14T16:30:40.169Z,26.26
2018-05-14T16:33:09.274Z,26.09
2018-05-14T16:35:37.577Z,26.06
2018-05-14T16:38:05.911Z,26.11
2018-05-14T16:40:35.018Z,26.15
2018-05-14T16:43:04.070Z,26.07
2018-05-14T16:45:32.376Z,26.25
2018-05-14T16:48:01.429Z,26.13
2018-05-14T16:50:30.514Z,26.09
2018-05-14T16:52:58.849Z,26.02
2018-05-14T16:55:27.932Z,25.99
2018-05-14T16:57:56.343Z,25.86
2018-05-14T17:00:24.576Z,25.82
2018-05-14T17:02:53.005Z,25.80
2018-05-14T17:05:21.325Z,25.78
2018-05-14T17:07:49.631Z,25.81
2018-05-14T17:10:18.201Z,25.79
2018-05-14T17:12:46.412Z,25.77
2018-05-14T17:15:14.691Z,25.64
2018-05-14T17:17:43.048Z,25.55
2018-05-14T17:20:12.205Z,25.61
2018-05-14T17:22:40.519Z,25.62
2018-05-14T17:25:09.572Z,25.57
2018-05-14T17:27:41.733Z,25.55
2018-05-14T17:30:10.063Z,25.47
2018-05-14T17:32:39.129Z,25.49
2018-05-14T17:35:07.429Z,25.46
2018-05-14T17:37:35.752Z,25.44
2018-05-14T17:40:04.028Z,25.37
2018-05-14T17:42:32.324Z,25.40
2018-05-14T17:45:00.650Z,25.36
2018-05-14T17:47:29.773Z,25.21
2018-05-14T17:49:58.101Z,25.11
2018-05-14T17:52:26.423Z,25.14
2018-05-14T17:54:55.044Z,25.03
2018-05-14T17:57:23.391Z,25.08
2018-05-14T17:59:51.694Z,25.00
2018-05-14T18:02:20.029Z,24.81
2018-05-14T18:04:48.346Z,24.73
2018-05-14T18:07:16.660Z,24.65
2018-05-14T18:09:44.975Z,24.57
2018-05-14T18:12:22.385Z,24.45
2018-05-14T18:14:50.779Z,24.28
2018-05-14T18:17:19.157Z,24.19
2018-05-14T18:19:52.990Z,24.13
2018-05-14T18:22:26.061Z,24.05
2018-05-14T18:25:00.044Z,23.96
2018-05-14T18:27:31.918Z,23.85
2018-05-14T18:30:05.819Z,23.77
2018-05-14T18:32:34.127Z,23.66
2018-05-14T18:35:07.957Z,23.62
2018-05-14T18:37:37.042Z,23.47
2018-05-14T18:40:05.397Z,23.41
2018-05-14T18:42:33.707Z,23.32
2018-05-14T18:45:02.795Z,23.23
2018-05-14T18:47:31.109Z,23.16
2018-05-14T18:49:59.807Z,23.17
2018-05-14T18:52:28.120Z,23.01
2018-05-14T18:54:56.454Z,22.94
2018-05-14T18:57:24.748Z,22.86
2018-05-14T18:59:53.670Z,22.83
2018-05-14T19:02:22.017Z,22.81
2018-05-14T19:04:50.313Z,22.77
2018-05-14T19:07:18.601Z,22.73
2018-05-14T19:09:47.049Z,22.62
2018-05-14T19:12:15.369Z,22.51
2018-05-14T19:17:49.949Z,22.37
2018-05-14T19:20:18.295Z,22.35
2018-05-14T19:22:52.282Z,22.23
2018-05-14T19:25:20.684Z,22.16
2018-05-14T19:27:56.220Z,22.09
2018-05-14T19:30:25.356Z,22.04
2018-05-14T19:32:53.759Z,22.04
2018-05-14T19:35:27.898Z,21.96
2018-05-14T19:37:56.190Z,21.84
2018-05-14T19:40:30.033Z,21.78
2018-05-14T19:42:59.327Z,21.69
2018-05-14T19:45:28.407Z,21.69
2018-05-14T19:47:56.710Z,21.57
2018-05-14T19:50:25.907Z,21.50
2018-05-14T19:52:54.974Z,21.43
2018-05-14T19:55:23.269Z,21.38
2018-05-14T19:57:52.416Z,21.42
2018-05-14T20:00:20.702Z,21.39
2018-05-14T20:02:49.002Z,21.37
2018-05-14T20:05:17.320Z,21.27
2018-05-14T20:07:47.110Z,21.24
2018-05-14T20:10:15.419Z,21.18
2018-05-14T20:12:43.826Z,21.15
2018-05-14T20:15:12.117Z,21.04
2018-05-14T20:17:40.434Z,20.94
2018-05-14T20:20:08.806Z,20.87
2018-05-14T20:22:37.049Z,20.74
2018-05-14T20:25:05.345Z,20.67
2018-05-14T20:27:33.688Z,20.59
2018-05-14T20:30:01.977Z,20.52
2018-05-14T20:32:30.263Z,20.47
2018-05-14T20:34:59.468Z,20.49
2018-05-14T20:37:27.827Z,20.50
2018-05-14T20:39:56.149Z,20.45
2018-05-14T20:42:25.264Z,20.41
2018-05-14T20:44:53.570Z,20.36
2018-05-14T20:47:21.894Z,20.30
2018-05-14T20:49:51.075Z,20.33
2018-05-14T20:52:19.449Z,20.23
2018-05-14T20:54:47.767Z,20.15
2018-05-14T20:57:16.920Z,20.11
2018-05-14T20:59:45.371Z,20.05
2018-05-14T21:02:13.714Z,19.97
2018-05-14T21:04:42.979Z,19.93
2018-05-14T21:07:11.433Z,19.90
2018-05-14T21:09:39.754Z,19.83
2018-05-14T21:12:08.204Z,19.63
2018-05-14T21:14:36.802Z,19.56
2018-05-14T21:17:05.150Z,19.45
2018-05-14T21:19:33.491Z,19.39
2018-05-14T21:22:01.869Z,19.30
2018-05-14T21:24:31.002Z,19.16
2018-05-14T21:26:59.363Z,19.01
2018-05-14T21:29:28.452Z,18.91
2018-05-14T21:31:57.533Z,18.74
2018-05-14T21:34:26.645Z,18.64
2018-05-14T21:36:54.998Z,18.52
2018-05-14T21:39:23.359Z,18.41
2018-05-14T21:41:51.736Z,18.31
2018-05-14T21:44:20.035Z,18.26
2018-05-14T21:46:48.434Z,18.09
2018-05-14T21:49:18.394Z,18.01
2018-05-14T21:51:46.724Z,17.87
2018-05-14T21:54:15.798Z,17.74
2018-05-14T21:56:44.107Z,17.63
2018-05-14T21:59:12.474Z,17.70
2018-05-14T22:01:45.724Z,17.50
2018-05-14T22:04:14.881Z,17.40
2018-05-14T22:06:43.181Z,17.36
2018-05-14T22:09:11.606Z,17.28
2018-05-14T22:11:39.929Z,17.23
2018-05-14T22:14:08.214Z,17.13
2018-05-14T22:16:36.503Z,17.05
2018-05-14T22:19:04.821Z,17.11
2018-05-14T22:21:33.116Z,17.21
2018-05-14T22:24:02.182Z,17.04
2018-05-14T22:26:30.486Z,17.27
2018-05-14T22:28:58.827Z,16.95
2018-05-14T22:31:27.131Z,16.93
2018-05-14T22:36:29.765Z,16.78
2018-05-14T22:38:58.115Z,16.73
2018-05-14T22:41:26.539Z,16.80
2018-05-14T22:43:54.884Z,16.78
2018-05-14T22:46:23.908Z,16.76
2018-05-14T22:48:52.218Z,16.70
2018-05-14T22:51:20.678Z,16.80
2018-05-14T22:53:49.782Z,16.88
2018-05-14T22:56:18.060Z,16.98
2018-05-14T22:58:46.349Z,16.97
2018-05-14T23:01:14.642Z,16.80
2018-05-14T23:03:42.946Z,16.79
2018-05-14T23:06:11.263Z,16.71
2018-05-14T23:11:14.188Z,16.46
2018-05-14T23:13:42.537Z,16.42
2018-05-14T23:16:10.849Z,16.37
2018-05-14T23:18:39.971Z,16.28
2018-05-14T23:21:09.031Z,16.20
2018-05-14T23:23:37.312Z,16.24
2018-05-14T23:26:05.615Z,16.21
2018-05-14T23:28:34.747Z,16.10
2018-05-14T23:31:03.054Z,16.02
2018-05-14T23:33:31.346Z,16.01
2018-05-14T23:35:59.650Z,15.85
2018-05-14T23:38:28.744Z,15.85
2018-05-14T23:40:57.792Z,15.73
2018-05-14T23:43:26.067Z,15.67
2018-05-14T23:45:55.229Z,15.66
2018-05-14T23:48:23.426Z,15.57
2018-05-14T23:50:51.715Z,15.50
2018-05-14T23:53:19.994Z,15.46
2018-05-14T23:55:48.317Z,15.41
2018-05-14T23:58:17.392Z,15.42
